Providence, Rhode Island
Traffic Map
Current Weather Conditions
Providence, Rhode Island
Clear
Clear
67°
Feels Like: 67°
Wind Chill: 67° Ceiling: Unl
Heat Index: 67° Visibility: 8mi
Dew Point: 64° Wind: 3mph
Humidity: 90% Direction: 230° (SW)
Pressure: 30.06in Gusts: 0mph
Raw Report DataKPVD 020351Z 23003KT 8SM CLR 19/18 A3006 RMK AO2 SLP178 LAST AUGMENTED T01940178
Traffic Incident Summary
Active as of:
Severity:
Category:
InformationThere was an issue retrieving the traffic information for this location. Please try a different location or try again shortly.
Advertisements
Track Severe Weather on mobile